createdAt,value
2022-10-23T00:02:50.554Z,10.78
2022-10-23T00:06:25.546Z,10.72
2022-10-23T00:09:48.507Z,10.68
2022-10-23T00:13:11.474Z,10.64
2022-10-23T00:16:33.492Z,10.63
2022-10-23T00:19:50.727Z,10.73
2022-10-23T00:23:04.334Z,10.84
2022-10-23T00:26:24.072Z,10.93
2022-10-23T00:29:52.478Z,10.97
2022-10-23T00:33:23.595Z,11.09
2022-10-23T00:36:46.450Z,11.26
2022-10-23T00:40:02.539Z,11.23
2022-10-23T00:43:21.815Z,11.23
2022-10-23T00:46:39.505Z,11.13
2022-10-23T00:50:07.483Z,11.05
2022-10-23T00:53:32.396Z,10.90
2022-10-23T00:56:54.466Z,10.79
2022-10-23T01:00:11.453Z,10.83
2022-10-23T01:03:35.354Z,10.81
2022-10-23T01:07:18.779Z,10.88
2022-10-23T01:10:44.902Z,10.80
2022-10-23T01:14:00.596Z,10.71
2022-10-23T01:17:17.751Z,10.64
2022-10-23T01:20:45.645Z,10.58
2022-10-23T01:24:26.742Z,10.44
2022-10-23T01:27:35.301Z,10.34
2022-10-23T01:30:44.792Z,10.31
2022-10-23T01:33:59.280Z,10.59
2022-10-23T01:37:07.717Z,10.73
2022-10-23T01:40:32.541Z,10.67
2022-10-23T01:43:52.483Z,10.65
2022-10-23T01:47:03.895Z,10.48
2022-10-23T01:50:13.371Z,10.43
2022-10-23T01:53:33.548Z,10.44
2022-10-23T01:56:58.048Z,10.47
2022-10-23T02:00:13.126Z,10.69
2022-10-23T02:03:42.468Z,10.50
2022-10-23T02:07:03.244Z,10.48
2022-10-23T02:10:26.202Z,10.42
2022-10-23T02:13:48.428Z,10.45
2022-10-23T02:17:42.640Z,10.43
2022-10-23T02:21:00.970Z,10.40
2022-10-23T02:24:16.154Z,10.42
2022-10-23T02:27:48.539Z,10.53
2022-10-23T02:30:58.431Z,10.43
2022-10-23T02:34:06.720Z,10.33
2022-10-23T02:37:26.306Z,10.46
2022-10-23T02:40:48.552Z,10.50
2022-10-23T02:44:38.717Z,10.59
2022-10-23T02:48:33.870Z,10.61
2022-10-23T02:51:43.255Z,10.67
2022-10-23T02:55:11.029Z,10.58
2022-10-23T02:59:17.374Z,10.54
2022-10-23T03:02:40.461Z,10.55
2022-10-23T03:06:07.283Z,10.54
2022-10-23T03:09:22.476Z,10.64
2022-10-23T03:12:40.480Z,10.60
2022-10-23T03:16:10.627Z,10.62
2022-10-23T03:19:21.590Z,10.62
2022-10-23T03:22:46.414Z,10.59
2022-10-23T03:26:10.186Z,10.50
2022-10-23T03:29:28.258Z,10.41
2022-10-23T03:32:50.134Z,10.31
2022-10-23T03:36:14.181Z,10.15
2022-10-23T03:39:39.160Z,10.15
2022-10-23T03:42:53.131Z,10.10
2022-10-23T03:46:02.283Z,9.99
2022-10-23T03:49:19.090Z,9.98
2022-10-23T03:52:29.826Z,10.06
2022-10-23T03:55:50.881Z,10.12
2022-10-23T03:59:03.187Z,9.97
2022-10-23T04:02:27.991Z,9.79
2022-10-23T04:05:58.506Z,9.79
2022-10-23T04:09:21.940Z,9.78
2022-10-23T04:12:25.361Z,9.72
2022-10-23T04:15:29.863Z,9.71
2022-10-23T04:18:43.527Z,9.55
2022-10-23T04:22:02.352Z,9.49
2022-10-23T04:25:24.868Z,9.43
2022-10-23T04:28:42.456Z,9.61
2022-10-23T04:32:06.944Z,9.78
2022-10-23T04:35:25.900Z,9.80
2022-10-23T04:38:52.864Z,9.81
2022-10-23T04:42:08.401Z,9.73
2022-10-23T04:45:24.357Z,9.76
2022-10-23T04:48:41.222Z,9.79
2022-10-23T04:52:22.818Z,9.97
2022-10-23T04:56:10.954Z,9.99
2022-10-23T04:59:45.987Z,10.00
2022-10-23T05:03:19.180Z,9.90
2022-10-23T05:06:44.194Z,9.79
2022-10-23T05:10:09.965Z,9.75
2022-10-23T05:13:27.908Z,9.68
2022-10-23T05:16:51.039Z,9.64
2022-10-23T05:19:56.816Z,9.54
2022-10-23T05:23:10.091Z,9.47
2022-10-23T05:26:18.031Z,9.45
2022-10-23T05:29:34.786Z,9.46
2022-10-23T05:32:45.635Z,9.42
2022-10-23T05:36:03.986Z,9.55
2022-10-23T05:39:31.732Z,9.53
2022-10-23T05:42:56.569Z,9.44
2022-10-23T05:46:23.490Z,9.53
2022-10-23T05:49:55.160Z,9.53
2022-10-23T05:53:09.518Z,9.64
2022-10-23T05:56:39.048Z,9.66
2022-10-23T05:59:45.845Z,9.80
2022-10-23T06:03:19.903Z,9.88
2022-10-23T06:06:35.494Z,10.01
2022-10-23T06:09:53.024Z,10.02
2022-10-23T06:13:07.367Z,9.94
2022-10-23T06:16:33.674Z,9.86
2022-10-23T06:20:07.706Z,9.94
2022-10-23T06:23:17.481Z,9.92
2022-10-23T06:26:49.709Z,9.85
2022-10-23T06:30:10.668Z,9.95
2022-10-23T06:33:34.617Z,10.11
2022-10-23T06:36:56.164Z,10.02
2022-10-23T06:40:16.521Z,9.98
2022-10-23T06:43:43.826Z,9.96
2022-10-23T06:47:03.906Z,10.09
2022-10-23T06:50:40.519Z,10.32
2022-10-23T06:53:50.389Z,10.46
2022-10-23T06:57:19.638Z,10.40
2022-10-23T07:00:34.856Z,10.36
2022-10-23T07:03:55.746Z,10.37
2022-10-23T07:07:21.665Z,10.55
2022-10-23T07:10:26.514Z,10.77
2022-10-23T07:13:42.663Z,10.99
2022-10-23T07:16:51.935Z,11.21
2022-10-23T07:19:56.709Z,11.39
2022-10-23T07:23:11.772Z,11.44
2022-10-23T07:26:27.727Z,11.36
2022-10-23T07:29:43.942Z,11.49
2022-10-23T07:32:47.466Z,11.54
2022-10-23T07:36:11.280Z,11.80
2022-10-23T07:39:15.639Z,11.86
2022-10-23T07:42:45.699Z,11.91
2022-10-23T07:46:03.103Z,11.91
2022-10-23T07:49:23.743Z,11.92
2022-10-23T07:52:39.720Z,11.94
2022-10-23T07:55:59.935Z,11.97
2022-10-23T07:59:37.150Z,12.00
2022-10-23T08:02:49.098Z,12.06
2022-10-23T08:06:10.673Z,12.13
2022-10-23T08:09:13.795Z,12.10
2022-10-23T08:12:22.844Z,12.19
2022-10-23T08:15:37.188Z,12.16
2022-10-23T08:18:56.155Z,12.34
2022-10-23T08:22:12.393Z,12.58
2022-10-23T08:25:28.883Z,12.69
2022-10-23T08:28:44.337Z,12.83
2022-10-23T08:32:06.730Z,12.96
2022-10-23T08:35:44.271Z,12.92
2022-10-23T08:39:15.055Z,12.90
2022-10-23T08:42:41.633Z,12.92
2022-10-23T08:45:59.402Z,13.06
2022-10-23T08:50:00.972Z,13.10
2022-10-23T08:53:11.362Z,13.31
2022-10-23T08:56:27.344Z,13.34
2022-10-23T08:59:40.342Z,13.41
2022-10-23T09:02:56.435Z,13.43
2022-10-23T09:06:25.818Z,13.50
2022-10-23T09:09:58.501Z,13.56
2022-10-23T09:13:36.155Z,13.64
2022-10-23T09:20:32.172Z,13.77
2022-10-23T09:23:48.756Z,13.77
2022-10-23T09:27:19.264Z,13.79
2022-10-23T09:30:42.839Z,13.91
2022-10-23T09:34:06.448Z,14.01
2022-10-23T09:37:28.207Z,14.16
2022-10-23T09:40:49.906Z,14.25
2022-10-23T09:44:44.075Z,14.48
2022-10-23T09:48:28.356Z,14.64
2022-10-23T09:51:45.358Z,14.76
2022-10-23T09:55:06.262Z,14.96
2022-10-23T09:58:28.519Z,15.01
2022-10-23T10:01:45.606Z,15.17
2022-10-23T10:05:38.847Z,15.28
2022-10-23T10:08:51.131Z,15.11
2022-10-23T10:12:47.206Z,15.29
2022-10-23T10:16:08.979Z,15.31
2022-10-23T10:19:39.099Z,15.33
2022-10-23T10:22:53.027Z,15.22
2022-10-23T10:26:31.277Z,15.15
2022-10-23T10:29:50.957Z,15.14
2022-10-23T10:33:36.699Z,15.31
2022-10-23T10:37:21.441Z,15.28
2022-10-23T10:40:41.548Z,15.44
2022-10-23T10:44:23.505Z,15.52
2022-10-23T10:48:08.042Z,15.62
2022-10-23T10:52:05.060Z,15.70
2022-10-23T10:55:22.136Z,15.67
2022-10-23T10:58:42.700Z,15.83
2022-10-23T11:02:04.343Z,15.92
2022-10-23T11:05:43.177Z,15.98
2022-10-23T11:08:57.924Z,16.02
2022-10-23T11:12:25.530Z,16.16
2022-10-23T11:15:41.357Z,16.12
2022-10-23T11:19:01.101Z,16.11
2022-10-23T11:22:17.543Z,16.03
2022-10-23T11:25:59.692Z,16.13
2022-10-23T11:30:01.848Z,16.08
2022-10-23T11:33:44.730Z,16.42
2022-10-23T11:37:05.283Z,16.53
2022-10-23T11:40:25.974Z,16.52
2022-10-23T11:43:55.920Z,16.56
2022-10-23T11:47:35.042Z,16.72
2022-10-23T11:50:55.149Z,16.81
2022-10-23T11:54:24.106Z,17.14
2022-10-23T11:58:20.549Z,16.92
2022-10-23T12:01:40.912Z,17.01
2022-10-23T12:04:53.617Z,17.09
2022-10-23T12:08:18.449Z,16.96
2022-10-23T12:11:46.829Z,16.78
2022-10-23T12:15:14.739Z,17.07
2022-10-23T12:18:22.345Z,17.18
2022-10-23T12:21:41.810Z,17.29
2022-10-23T12:25:17.653Z,16.98
2022-10-23T12:28:40.609Z,16.95
2022-10-23T12:32:06.014Z,16.99
2022-10-23T12:36:08.121Z,16.71
2022-10-23T12:39:49.073Z,16.69
2022-10-23T12:43:44.981Z,17.06
2022-10-23T12:46:57.702Z,17.06
2022-10-23T12:50:24.615Z,16.73
2022-10-23T12:53:40.611Z,16.44
2022-10-23T12:56:58.006Z,16.46
2022-10-23T13:00:15.611Z,16.37
2022-10-23T13:03:25.304Z,16.36
2022-10-23T13:06:31.734Z,16.45
2022-10-23T13:09:44.201Z,16.61
2022-10-23T13:13:17.696Z,16.64
2022-10-23T13:16:26.632Z,16.61
2022-10-23T13:19:37.308Z,16.54
2022-10-23T13:23:00.633Z,16.64
2022-10-23T13:26:21.601Z,16.42
2022-10-23T13:29:33.852Z,16.39
2022-10-23T13:32:38.426Z,16.34
2022-10-23T13:36:13.581Z,16.41
2022-10-23T13:39:28.474Z,16.48
2022-10-23T13:42:32.297Z,16.39
2022-10-23T13:45:50.912Z,16.43
2022-10-23T13:49:15.596Z,16.48
2022-10-23T13:52:40.667Z,16.45
2022-10-23T13:55:54.949Z,16.44
2022-10-23T13:59:03.817Z,16.26
2022-10-23T14:02:26.559Z,16.26
2022-10-23T14:05:42.965Z,16.20
2022-10-23T14:09:05.657Z,16.19
2022-10-23T14:12:42.321Z,16.23
2022-10-23T14:15:54.565Z,16.28
2022-10-23T14:19:17.568Z,16.30
2022-10-23T14:22:49.692Z,16.34
2022-10-23T14:26:07.720Z,16.26
2022-10-23T14:29:21.397Z,16.23
2022-10-23T14:32:37.489Z,16.27
2022-10-23T14:36:43.282Z,16.22
2022-10-23T14:40:35.761Z,16.17
2022-10-23T14:43:58.402Z,16.16
2022-10-23T14:47:19.172Z,16.11
2022-10-23T14:50:42.141Z,16.07
2022-10-23T14:54:05.342Z,16.06
2022-10-23T14:57:16.827Z,16.05
2022-10-23T15:00:39.341Z,15.97
2022-10-23T15:04:10.376Z,15.93
2022-10-23T15:07:31.440Z,15.88
2022-10-23T15:10:45.989Z,15.85
2022-10-23T15:13:49.607Z,15.87
2022-10-23T15:16:53.191Z,15.90
2022-10-23T15:20:00.921Z,15.98
2022-10-23T15:23:21.692Z,15.99
2022-10-23T15:26:27.969Z,16.00
2022-10-23T15:29:51.472Z,16.03
2022-10-23T15:32:55.832Z,15.99
2022-10-23T15:36:05.908Z,15.96
2022-10-23T15:39:32.484Z,15.92
2022-10-23T15:42:55.450Z,15.88
2022-10-23T15:46:17.261Z,15.85
2022-10-23T15:49:40.467Z,15.82
2022-10-23T15:53:02.500Z,15.80
2022-10-23T15:56:24.337Z,15.76
2022-10-23T15:59:31.824Z,15.75
2022-10-23T16:02:58.292Z,15.73
2022-10-23T16:06:29.599Z,15.67
2022-10-23T16:09:55.334Z,15.64
2022-10-23T16:12:58.594Z,15.64
2022-10-23T16:16:22.223Z,15.67
2022-10-23T16:20:01.307Z,15.71
2022-10-23T16:23:24.582Z,15.65
2022-10-23T16:26:36.203Z,15.64
2022-10-23T16:29:53.336Z,15.67
2022-10-23T16:33:21.343Z,15.76
2022-10-23T16:36:29.518Z,15.86
2022-10-23T16:40:05.216Z,15.98
2022-10-23T16:43:41.598Z,16.03
2022-10-23T16:47:07.296Z,16.29
2022-10-23T16:50:15.699Z,16.38
2022-10-23T16:53:37.459Z,16.43
2022-10-23T16:56:54.477Z,16.42
2022-10-23T17:00:16.202Z,16.39
2022-10-23T17:03:20.571Z,16.35
2022-10-23T17:06:31.549Z,16.41
2022-10-23T17:09:47.091Z,16.37
2022-10-23T17:12:59.881Z,16.32
2022-10-23T17:16:33.239Z,16.29
2022-10-23T17:19:53.894Z,16.27
2022-10-23T17:22:57.026Z,16.28
2022-10-23T17:26:20.034Z,16.24
2022-10-23T17:29:44.328Z,16.27
2022-10-23T17:33:07.959Z,16.21
2022-10-23T17:36:44.904Z,16.21
2022-10-23T17:39:56.353Z,16.18
2022-10-23T17:43:16.261Z,16.12
2022-10-23T17:46:21.163Z,16.11
2022-10-23T17:49:29.762Z,16.09
2022-10-23T17:52:53.995Z,16.08
2022-10-23T17:56:05.110Z,16.06
2022-10-23T17:59:14.930Z,16.03
2022-10-23T18:02:18.522Z,15.96
2022-10-23T18:05:31.962Z,15.96
2022-10-23T18:08:49.882Z,15.97
2022-10-23T18:11:53.158Z,15.94
2022-10-23T18:14:57.826Z,15.93
2022-10-23T18:18:07.869Z,15.93
2022-10-23T18:21:21.473Z,15.90
2022-10-23T18:24:44.908Z,15.90
2022-10-23T18:28:02.536Z,15.89
2022-10-23T18:31:14.242Z,15.81
2022-10-23T18:34:22.884Z,15.82
2022-10-23T18:37:35.524Z,15.80
2022-10-23T18:40:44.639Z,15.78
2022-10-23T18:44:03.245Z,15.81
2022-10-23T18:47:27.418Z,15.75
2022-10-23T18:50:48.890Z,15.66
2022-10-23T18:54:07.369Z,15.75
2022-10-23T18:57:23.955Z,15.73
2022-10-23T19:00:48.026Z,15.68
2022-10-23T19:04:10.912Z,15.69
2022-10-23T19:07:14.236Z,15.64
2022-10-23T19:10:22.142Z,15.57
2022-10-23T19:13:39.123Z,15.57
2022-10-23T19:17:32.969Z,15.57
2022-10-23T19:20:50.298Z,15.65
2022-10-23T19:24:02.121Z,15.65
2022-10-23T19:27:06.634Z,15.67
2022-10-23T19:30:25.808Z,15.67
2022-10-23T19:33:48.452Z,15.59
2022-10-23T19:36:53.791Z,15.59
2022-10-23T19:39:57.634Z,15.53
2022-10-23T19:43:08.689Z,15.54
2022-10-23T19:46:19.060Z,15.57
2022-10-23T19:49:23.976Z,15.54
2022-10-23T19:52:32.327Z,15.54
2022-10-23T19:55:43.661Z,15.51
2022-10-23T19:58:47.750Z,15.48
2022-10-23T20:02:10.869Z,15.50
2022-10-23T20:05:47.870Z,15.44
2022-10-23T20:09:13.932Z,15.49
2022-10-23T20:12:29.497Z,15.53
2022-10-23T20:15:53.789Z,15.54
2022-10-23T20:19:10.794Z,15.54
2022-10-23T20:22:34.590Z,15.49
2022-10-23T20:26:05.585Z,15.52
2022-10-23T20:29:22.727Z,15.49
2022-10-23T20:32:43.966Z,15.47
2022-10-23T20:36:07.689Z,15.44
2022-10-23T20:39:25.579Z,15.42
2022-10-23T20:42:48.805Z,15.45
2022-10-23T20:46:20.504Z,15.34
2022-10-23T20:49:43.063Z,15.26
2022-10-23T20:53:05.635Z,15.22
2022-10-23T20:56:33.544Z,15.22
2022-10-23T20:59:50.597Z,15.21
2022-10-23T21:03:06.860Z,15.17
2022-10-23T21:06:27.786Z,15.18
2022-10-23T21:09:51.673Z,15.15
2022-10-23T21:12:57.547Z,15.17
2022-10-23T21:16:26.228Z,15.18
2022-10-23T21:19:53.553Z,15.09
2022-10-23T21:23:17.768Z,14.98
2022-10-23T21:26:39.698Z,14.99
2022-10-23T21:29:59.584Z,15.06
2022-10-23T21:33:02.756Z,15.09
2022-10-23T21:36:15.389Z,15.11
2022-10-23T21:39:28.635Z,15.09
2022-10-23T21:42:50.316Z,14.99
2022-10-23T21:46:11.725Z,14.97
2022-10-23T21:49:34.442Z,14.97
2022-10-23T21:52:58.320Z,15.01
2022-10-23T21:56:35.554Z,15.01
2022-10-23T21:59:49.472Z,15.09
2022-10-23T22:03:06.414Z,15.13
2022-10-23T22:06:30.159Z,15.12
2022-10-23T22:09:47.439Z,15.02
2022-10-23T22:13:01.284Z,14.96
2022-10-23T22:16:20.963Z,14.90
2022-10-23T22:19:36.647Z,14.93
2022-10-23T22:22:40.331Z,14.95
2022-10-23T22:25:51.129Z,14.92
2022-10-23T22:29:13.849Z,14.92
2022-10-23T22:32:29.617Z,14.87
2022-10-23T22:35:35.828Z,14.82
2022-10-23T22:38:46.111Z,14.83
2022-10-23T22:41:53.797Z,14.86
2022-10-23T22:44:57.405Z,14.90
2022-10-23T22:48:00.124Z,14.88
2022-10-23T22:51:16.923Z,14.86
2022-10-23T22:54:42.322Z,14.84
2022-10-23T22:57:51.780Z,14.81
2022-10-23T23:01:19.054Z,14.75
2022-10-23T23:04:38.706Z,14.64
2022-10-23T23:08:03.319Z,14.53
2022-10-23T23:11:31.344Z,14.49
2022-10-23T23:14:54.085Z,14.34
2022-10-23T23:17:57.246Z,14.27
2022-10-23T23:21:05.631Z,14.37
2022-10-23T23:24:11.697Z,14.48
2022-10-23T23:27:16.794Z,14.48
2022-10-23T23:30:32.332Z,14.49
2022-10-23T23:33:38.794Z,14.52
2022-10-23T23:36:42.441Z,14.46
2022-10-23T23:39:51.820Z,14.39
2022-10-23T23:43:03.003Z,14.37
2022-10-23T23:46:09.905Z,14.42
2022-10-23T23:49:16.652Z,14.50
2022-10-23T23:52:19.902Z,14.50
2022-10-23T23:55:23.482Z,14.51
2022-10-23T23:58:37.962Z,14.50
